Portada
METAR-TAF:

METAR-TAF

Aeroports :

Eufaula, Alabama, Estats Units d'Amèrica

latitud: 31-57-05N, longitud: 085-07-44W, altitud: 87 m

Observació

L'informe es va fer fa 54 minuts, a les 08:58 UTC
Vent calma
Temperatura 18°C
Humitat 94%
Pressió 1016 hPa
Visibilitat: 0.8 km
boira

METAR: KEUF 260858Z AUTO 00000KT 1/2SM FG VV001 18/17 A3001 RMK AO2 SLP160 T01780172 53002

Hora: 04:52 (09:52 UTC)


TAF: manca

Observacions i pronòstics meteorològics de més de 4000 aeroports (METAR i TAF).

Les estacions disponibles són els punts grocs i vermells al mapa.

Posi el ratolí al punt desitjat per veure el nom de l'estació.

Feu clic per veure les observacions i els pronòstics meteorològics.

Per canviar el mapa: feu clic els botons verds amb una creu de color negre per apropar; al botó verd amb un guió per allunyar la imatge; o en les fletxes verdes per a mapes adjacents.


METAR-TAF: